Time;durP1;ratioP1;P1;durP2;ratioP2;P2;SDS_P1;SDS_P2;PMS_P1;PMS_P2;Temp;Humidity;BMP_temperature;BMP_pressure;BME280_temperature;BME280_humidity;BME280_pressure;Samples;Min_cycle;Max_cycle;Signal;HPM_P1;HPM_P2
2021/08/31 00:00:29;;;;;;;;;17.25;14.50;;;;;18.60;66.38;102137.53;4921533;28;46548;-79
2021/08/31 00:02:54;;;;;;;;;13.50;12.75;;;;;18.59;66.46;102141.16;4920986;28;45211;-79
2021/08/31 00:05:20;;;;;;;;;17.25;15.50;;;;;18.63;66.43;102138.28;4921300;28;45221;-80
2021/08/31 00:07:45;;;;;;;;;15.75;13.50;;;;;18.64;66.43;102145.31;4920875;28;45421;-79
2021/08/31 00:10:12;;;;;;;;;17.00;15.25;;;;;18.65;66.56;102132.88;4924437;28;46284;-80
2021/08/31 00:12:38;;;;;;;;;18.50;15.00;;;;;18.68;66.04;102146.06;4924540;28;45388;-78
2021/08/31 00:15:05;;;;;;;;;15.75;13.50;;;;;18.61;66.31;102134.81;4907557;28;45391;-78
2021/08/31 00:17:30;;;;;;;;;14.75;14.25;;;;;18.66;66.17;102148.81;4924082;28;45424;-78
2021/08/31 00:19:55;;;;;;;;;19.50;17.50;;;;;18.66;66.20;102139.94;4924520;28;46515;-78
2021/08/31 00:22:21;;;;;;;;;16.25;14.50;;;;;18.63;66.15;102137.41;4924114;28;45319;-77
2021/08/31 00:24:46;;;;;;;;;13.00;11.75;;;;;18.64;66.16;102132.00;4917893;28;45253;-77
2021/08/31 00:27:12;;;;;;;;;20.50;15.25;;;;;18.59;66.07;102123.38;4923990;28;45230;-80
2021/08/31 00:29:37;;;;;;;;;15.25;15.25;;;;;18.56;66.36;102136.81;4923725;28;46353;-75
2021/08/31 00:32:04;;;;;;;;;13.75;13.75;;;;;18.56;66.34;102142.16;4924333;28;45307;-80
2021/08/31 00:34:29;;;;;;;;;16.75;15.75;;;;;18.54;66.06;102133.38;4924429;28;45284;-80
2021/08/31 00:36:55;;;;;;;;;18.75;16.00;;;;;18.57;66.24;102149.19;4906192;28;46130;-80
2021/08/31 00:39:20;;;;;;;;;19.75;15.25;;;;;18.57;66.14;102143.84;4906899;28;46736;-86
2021/08/31 00:41:47;;;;;;;;;16.00;13.25;;;;;18.58;66.43;102156.25;4907052;28;45592;-79
2021/08/31 00:44:23;;;;;;;;;15.00;14.25;;;;;18.52;65.98;102148.56;4923869;28;45441;-77
2021/08/31 00:46:50;;;;;;;;;12.50;10.75;;;;;18.54;66.10;102160.00;4923803;28;45481;-82
2021/08/31 00:49:17;;;;;;;;;10.00;10.00;;;;;18.50;65.97;102153.94;4923741;28;46227;-82
2021/08/31 00:51:43;;;;;;;;;15.50;14.50;;;;;18.50;65.99;102153.06;4923192;28;45160;-81
2021/08/31 00:54:08;;;;;;;;;23.25;17.25;;;;;18.52;66.46;102145.88;4923894;28;45438;-82
2021/08/31 00:56:34;;;;;;;;;12.00;9.75;;;;;18.48;66.28;102141.63;4923545;28;45422;-82
2021/08/31 00:59:00;;;;;;;;;17.00;15.25;;;;;18.41;66.45;102141.91;4924084;28;46664;-77
2021/08/31 01:01:25;;;;;;;;;18.25;14.25;;;;;18.40;66.68;102140.16;4923911;28;45245;-76
2021/08/31 01:03:50;;;;;;;;;15.50;13.25;;;;;18.35;66.45;102131.50;4923190;28;45444;-77
2021/08/31 01:06:16;;;;;;;;;15.75;14.25;;;;;18.36;66.40;102129.72;4923875;28;45511;-85
2021/08/31 01:08:41;;;;;;;;;18.50;13.50;;;;;18.42;66.62;102142.78;4906458;28;47374;-82
2021/08/31 01:11:07;;;;;;;;;13.00;13.00;;;;;18.40;66.41;102142.81;4923521;28;45861;-84
2021/08/31 01:13:34;;;;;;;;;18.25;15.50;;;;;18.40;66.35;102147.28;4923980;28;45334;-88
2021/08/31 01:16:00;;;;;;;;;13.75;13.75;;;;;18.36;66.77;102151.88;4923390;28;45340;-85
2021/08/31 01:18:27;;;;;;;;;13.25;13.25;;;;;18.34;66.60;102143.09;4923375;28;46467;-86
2021/08/31 01:20:54;;;;;;;;;13.00;12.00;;;;;18.35;66.84;102143.97;4922018;28;45828;-86
2021/08/31 01:23:20;;;;;;;;;18.75;16.00;;;;;18.33;66.77;102138.69;4906739;28;45266;-84
2021/08/31 01:25:47;;;;;;;;;15.25;14.75;;;;;18.29;66.81;102145.09;4923459;28;45468;-89
2021/08/31 01:28:21;;;;;;;;;24.25;16.00;;;;;18.23;66.68;102146.22;4923523;28;45388;-88
2021/08/31 01:30:53;;;;;;;;;14.00;12.00;;;;;18.18;67.00;102143.72;4905625;28;45690;-83
2021/08/31 01:33:21;;;;;;;;;15.00;13.25;;;;;18.10;67.04;102151.16;4923393;28;45287;-80
2021/08/31 01:35:46;;;;;;;;;13.25;12.75;;;;;18.07;67.31;102146.00;4923459;28;45340;-81
2021/08/31 01:38:11;;;;;;;;;10.00;9.50;;;;;18.05;67.28;102145.19;4923302;28;46447;-85
2021/08/31 01:40:37;;;;;;;;;14.50;10.00;;;;;17.99;67.70;102149.84;4922847;28;45461;-90
2021/08/31 01:43:03;;;;;;;;;12.75;11.50;;;;;17.96;68.02;102144.66;4923769;28;45243;-78
2021/08/31 01:45:44;;;;;;;;;15.50;11.00;;;;;17.97;67.53;102146.38;4923080;28;45336;-76
2021/08/31 01:48:10;;;;;;;;;9.25;8.75;;;;;17.98;67.57;102152.53;4919197;28;45627;-76
2021/08/31 01:50:35;;;;;;;;;11.75;9.75;;;;;18.05;67.42;102151.34;4930732;28;45311;-76
2021/08/31 01:53:00;;;;;;;;;8.25;7.25;;;;;18.08;67.67;102155.69;4923560;28;45260;-76
2021/08/31 01:55:26;;;;;;;;;13.25;10.50;;;;;18.05;67.70;102161.16;4922796;28;45296;-76
2021/08/31 01:57:51;;;;;;;;;13.00;10.75;;;;;18.02;67.75;102154.16;4905626;28;47818;-76
2021/08/31 02:00:17;;;;;;;;;8.75;8.25;;;;;18.03;67.27;102155.00;4922495;28;45481;-76
2021/08/31 02:02:42;;;;;;;;;13.00;9.00;;;;;17.99;67.26;102154.28;4923157;28;45434;-77
2021/08/31 02:05:08;;;;;;;;;14.50;9.25;;;;;17.99;67.43;102164.94;4922366;28;45553;-77
2021/08/31 02:07:33;;;;;;;;;14.75;12.00;;;;;17.95;67.53;102158.88;4921703;28;45486;-76
2021/08/31 02:09:58;;;;;;;;;11.75;9.00;;;;;17.95;67.87;102166.84;4922925;28;45279;-76
2021/08/31 02:12:24;;;;;;;;;13.00;11.25;;;;;17.91;67.77;102162.59;4923040;28;45403;-77
2021/08/31 02:14:49;;;;;;;;;11.50;11.50;;;;;17.91;67.32;102175.88;4923077;28;45331;-77
2021/08/31 02:17:15;;;;;;;;;16.25;11.25;;;;;17.89;67.80;102172.44;4922456;28;46069;-77
2021/08/31 02:19:41;;;;;;;;;13.75;9.00;;;;;17.85;67.46;102166.34;4922898;28;45343;-77
2021/08/31 02:22:06;;;;;;;;;9.75;8.00;;;;;17.81;68.01;102161.22;4922926;28;45231;-77
2021/08/31 02:24:31;;;;;;;;;12.00;10.75;;;;;17.83;67.45;102170.03;4923063;28;45264;-77
2021/08/31 02:26:57;;;;;;;;;9.50;9.50;;;;;17.83;67.74;102159.41;4921936;28;45465;-76
2021/08/31 02:29:24;;;;;;;;;12.25;11.25;;;;;17.84;67.61;102166.44;4905501;28;45322;-76
2021/08/31 02:31:50;;;;;;;;;18.00;12.25;;;;;17.81;67.85;102172.75;4905841;28;45300;-76
2021/08/31 02:34:15;;;;;;;;;12.25;12.00;;;;;17.80;67.99;102159.53;4922325;28;45216;-76
2021/08/31 02:36:41;;;;;;;;;13.25;10.25;;;;;17.75;67.71;102163.22;4923780;28;46066;-76
2021/08/31 02:39:06;;;;;;;;;10.75;9.25;;;;;17.75;68.32;102157.88;4921842;28;45315;-76
2021/08/31 02:41:31;;;;;;;;;10.00;9.75;;;;;17.76;68.25;102151.66;4905544;28;45307;-76
2021/08/31 02:43:57;;;;;;;;;11.75;10.75;;;;;17.81;67.51;102155.91;4905114;28;46153;-76
2021/08/31 02:46:22;;;;;;;;;11.00;11.00;;;;;17.82;67.68;102157.66;4921952;28;46448;-76
2021/08/31 02:48:47;;;;;;;;;11.50;11.50;;;;;17.82;68.05;102144.34;4922239;28;45302;-76
2021/08/31 02:51:13;;;;;;;;;11.75;8.25;;;;;17.82;68.02;102155.00;4933007;28;45246;-76
2021/08/31 02:53:38;;;;;;;;;11.75;11.75;;;;;17.77;67.70;102144.56;4922545;28;45513;-76
2021/08/31 02:56:04;;;;;;;;;12.25;11.25;;;;;17.75;67.86;102152.56;4921420;28;45324;-76
2021/08/31 02:58:29;;;;;;;;;11.25;11.25;;;;;17.75;67.97;102154.38;4905291;28;45425;-76
2021/08/31 03:01:27;;;;;;;;;11.75;9.75;;;;;17.73;68.33;102143.81;4922010;28;45315;-76
2021/08/31 03:03:49;;;;;;;;;19.00;14.00;;;;;17.75;67.98;102141.09;4921606;28;45300;-76
2021/08/31 03:06:14;;;;;;;;;12.50;11.00;;;;;17.73;68.12;102149.13;4921321;28;46549;-76
2021/08/31 03:08:39;;;;;;;;;14.00;13.25;;;;;17.73;68.36;102145.63;4905093;28;45260;-76
2021/08/31 03:11:05;;;;;;;;;11.25;11.25;;;;;17.73;68.09;102143.81;4922045;28;45476;-76
2021/08/31 03:13:30;;;;;;;;;15.50;14.00;;;;;17.73;67.77;102140.31;4905049;28;45906;-76
2021/08/31 03:15:55;;;;;;;;;15.50;14.50;;;;;17.71;67.86;102139.47;4921936;28;46668;-76
2021/08/31 03:18:20;;;;;;;;;19.00;14.75;;;;;17.72;67.67;102147.41;4921648;28;45408;-75
2021/08/31 03:20:46;;;;;;;;;15.00;13.50;;;;;17.69;67.82;102147.53;4922208;28;45280;-75
2021/08/31 03:23:11;;;;;;;;;13.50;12.75;;;;;17.66;67.67;102147.63;4922089;28;45227;-75
2021/08/31 03:25:37;;;;;;;;;12.00;11.25;;;;;17.66;67.87;102147.63;4921969;28;45655;-76
2021/08/31 03:28:02;;;;;;;;;10.00;9.50;;;;;17.65;68.10;102156.56;4920659;28;45168;-76
2021/08/31 03:30:27;;;;;;;;;17.25;12.75;;;;;17.66;68.13;102156.50;4904687;28;45741;-77
2021/08/31 03:32:53;;;;;;;;;12.75;11.75;;;;;17.66;68.25;102160.94;4921477;28;45268;-77
2021/08/31 03:35:20;;;;;;;;;13.25;12.50;;;;;17.68;68.01;102159.06;4921978;28;45208;-76
2021/08/31 03:37:45;;;;;;;;;12.00;10.50;;;;;17.68;68.14;102169.72;4921572;28;45592;-76
2021/08/31 03:40:11;;;;;;;;;12.75;11.50;;;;;17.71;67.75;102166.06;4922130;28;45381;-77
2021/08/31 03:42:37;;;;;;;;;15.00;13.25;;;;;17.67;67.74;102168.00;4904479;28;46986;-77
2021/08/31 03:45:02;;;;;;;;;19.25;11.25;;;;;17.66;67.97;102172.44;4925021;28;45401;-76
2021/08/31 03:47:27;;;;;;;;;15.50;9.50;;;;;17.70;68.35;102167.00;4924609;28;46931;-76
2021/08/31 03:49:53;;;;;;;;;11.25;9.50;;;;;17.70;67.74;102167.00;4927234;28;45465;-76
2021/08/31 03:52:18;;;;;;;;;12.25;11.25;;;;;17.67;68.02;102170.66;4923556;28;45517;-76
2021/08/31 03:54:43;;;;;;;;;13.25;11.50;;;;;17.67;67.97;102170.66;4897773;28;48068;-77
2021/08/31 03:57:09;;;;;;;;;9.50;9.00;;;;;17.69;67.98;102168.78;4907405;28;45468;-76
2021/08/31 03:59:34;;;;;;;;;12.75;12.75;;;;;17.69;67.98;102173.25;4925153;28;45353;-75
2021/08/31 04:01:59;;;;;;;;;11.50;11.50;;;;;17.70;67.79;102173.19;4924736;28;45525;-75
2021/08/31 04:04:25;;;;;;;;;13.50;11.00;;;;;17.68;68.01;102167.03;4924773;28;45353;-75
2021/08/31 04:06:50;;;;;;;;;11.50;10.50;;;;;17.68;67.80;102175.03;4907018;28;45467;-75
2021/08/31 04:09:16;;;;;;;;;10.75;8.00;;;;;17.68;67.93;102171.53;4924796;28;45270;-75
2021/08/31 04:11:41;;;;;;;;;14.75;13.75;;;;;17.69;68.30;102178.56;4924659;28;45225;-75
2021/08/31 04:14:06;;;;;;;;;12.00;12.00;;;;;17.66;68.25;102172.44;4907413;28;48548;-75
2021/08/31 04:16:32;;;;;;;;;13.75;11.25;;;;;17.70;68.51;102175.84;4924531;28;45467;-75
2021/08/31 04:18:57;;;;;;;;;17.00;12.75;;;;;17.71;68.28;102174.91;4924332;28;45348;-75
2021/08/31 04:21:22;;;;;;;;;11.75;10.25;;;;;17.72;68.15;102168.69;4924696;28;45470;-75
2021/08/31 04:23:48;;;;;;;;;16.50;16.50;;;;;17.77;68.29;102181.78;4924445;28;45489;-75
2021/08/31 04:26:13;;;;;;;;;17.50;13.75;;;;;17.81;67.71;102185.16;4923726;28;45499;-75
2021/08/31 04:28:39;;;;;;;;;16.00;12.50;;;;;17.80;67.76;102184.31;4924367;28;45284;-76
2021/08/31 04:31:04;;;;;;;;;19.00;11.50;;;;;17.81;68.01;102188.69;4924488;28;45350;-75
2021/08/31 04:33:30;;;;;;;;;17.50;15.75;;;;;17.80;67.94;102183.44;4924082;28;46484;-75
2021/08/31 04:35:55;;;;;;;;;15.00;14.00;;;;;17.79;68.27;102189.69;4924195;28;45285;-74
2021/08/31 04:38:20;;;;;;;;;19.00;16.00;;;;;17.81;67.74;102185.16;4924489;28;45241;-76
2021/08/31 04:40:46;;;;;;;;;15.75;15.00;;;;;17.82;68.10;102185.13;4906432;28;47372;-74
2021/08/31 04:43:11;;;;;;;;;20.50;18.50;;;;;17.79;68.10;102187.03;4924000;28;46587;-76
2021/08/31 04:45:36;;;;;;;;;17.00;13.75;;;;;17.77;67.88;102187.09;4923485;28;45663;-75
2021/08/31 04:48:02;;;;;;;;;15.00;12.75;;;;;17.73;67.86;102182.84;4906991;28;45719;-76
2021/08/31 04:50:27;;;;;;;;;20.00;18.25;;;;;17.74;67.98;102188.09;4931645;28;45338;-75
2021/08/31 04:52:52;;;;;;;;;21.00;19.00;;;;;17.74;67.84;102184.56;4906905;28;47128;-76
2021/08/31 04:55:19;;;;;;;;;20.75;17.00;;;;;17.72;67.79;102189.94;4923314;28;45550;-75
2021/08/31 04:57:45;;;;;;;;;16.50;16.50;;;;;17.75;67.98;102194.28;4916388;28;45341;-75
2021/08/31 05:00:11;;;;;;;;;15.50;14.25;;;;;17.80;68.26;102202.06;4906052;28;46054;-75
2021/08/31 05:02:36;;;;;;;;;19.00;16.75;;;;;17.80;68.10;102196.75;4922121;28;46902;-75
2021/08/31 05:05:04;;;;;;;;;14.75;14.50;;;;;17.80;67.82;102196.75;4909490;28;45242;-75
2021/08/31 05:07:30;;;;;;;;;22.50;14.75;;;;;17.80;68.06;102186.97;4909766;28;45457;-75
2021/08/31 05:09:55;;;;;;;;;25.50;19.50;;;;;17.81;67.86;102193.13;4923712;28;45258;-75
2021/08/31 05:12:20;;;;;;;;;19.50;17.50;;;;;17.81;68.06;102190.47;4923194;28;46386;-75
2021/08/31 05:14:46;;;;;;;;;15.75;13.25;;;;;17.86;68.00;102199.16;4906361;28;45307;-76
2021/08/31 05:17:12;;;;;;;;;23.00;19.75;;;;;17.88;68.13;102195.50;4923361;28;45429;-75
2021/08/31 05:19:38;;;;;;;;;22.50;19.50;;;;;17.83;67.54;102193.97;4923442;28;45629;-75
2021/08/31 05:22:04;;;;;;;;;21.25;20.00;;;;;17.85;67.76;102200.94;4923685;28;46543;-75
2021/08/31 05:24:30;;;;;;;;;23.25;19.25;;;;;17.85;68.14;102200.09;4923371;28;45699;-75
2021/08/31 05:26:58;;;;;;;;;19.00;18.00;;;;;17.84;68.08;102199.22;4923284;28;45266;-75
2021/08/31 05:29:24;;;;;;;;;21.75;16.50;;;;;17.83;67.81;102201.94;4918414;28;45733;-75
2021/08/31 05:31:49;;;;;;;;;19.00;17.75;;;;;17.85;67.94;102200.94;4917261;28;45227;-75
2021/08/31 05:34:14;;;;;;;;;19.75;16.50;;;;;17.88;67.65;102206.13;4917924;28;45208;-75
2021/08/31 05:36:40;;;;;;;;;19.50;15.50;;;;;17.88;68.08;102205.25;4923574;28;45446;-75
2021/08/31 05:39:06;;;;;;;;;22.50;18.50;;;;;17.88;67.88;102203.47;4923304;28;45176;-75
2021/08/31 05:41:35;;;;;;;;;20.00;17.50;;;;;17.85;67.84;102200.09;4919515;28;46468;-75
2021/08/31 05:44:01;;;;;;;;;22.75;17.25;;;;;17.88;68.08;102211.44;4922917;28;45421;-75
2021/08/31 05:46:27;;;;;;;;;25.25;15.50;;;;;17.86;67.99;102210.66;4923455;28;45237;-75
2021/08/31 05:48:52;;;;;;;;;25.00;19.25;;;;;17.85;68.49;102213.38;4921386;28;45524;-75
2021/08/31 05:51:18;;;;;;;;;23.25;19.00;;;;;17.80;68.29;102204.72;4923176;28;46445;-75
2021/08/31 05:53:44;;;;;;;;;21.75;20.50;;;;;17.79;68.61;102218.94;4923975;28;45413;-75
2021/08/31 05:56:10;;;;;;;;;20.00;18.50;;;;;17.81;68.16;102214.41;4923118;28;45222;-75
2021/08/31 05:58:35;;;;;;;;;21.75;20.00;;;;;17.84;68.25;102224.94;4923417;28;45223;-75
2021/08/31 06:01:00;;;;;;;;;22.00;20.25;;;;;17.83;68.28;102223.22;4905908;28;47992;-75
2021/08/31 06:03:26;;;;;;;;;23.50;20.50;;;;;17.81;68.42;102225.06;4922840;28;45208;-75
2021/08/31 06:05:51;;;;;;;;;17.75;15.25;;;;;17.82;68.46;102226.81;4922967;28;45321;-75
2021/08/31 06:08:16;;;;;;;;;24.75;21.25;;;;;17.87;68.27;102224.81;4922761;28;45292;-75
2021/08/31 06:10:42;;;;;;;;;20.75;19.75;;;;;17.90;68.73;102219.38;4920906;28;46938;-75
2021/08/31 06:13:08;;;;;;;;;23.50;19.00;;;;;17.94;68.49;102231.63;4921123;28;45457;-75
2021/08/31 06:15:33;;;;;;;;;26.00;20.75;;;;;17.94;68.24;102225.44;4919705;28;45399;-76
2021/08/31 06:17:58;;;;;;;;;25.50;21.75;;;;;17.92;68.40;102233.47;4903997;28;47317;-75
2021/08/31 06:20:24;;;;;;;;;17.75;15.75;;;;;17.92;68.91;102240.59;4922499;28;45355;-75
2021/08/31 06:22:49;;;;;;;;;30.75;24.00;;;;;17.89;68.61;102238.91;4922444;28;45316;-75
2021/08/31 06:25:14;;;;;;;;;25.75;21.75;;;;;17.88;68.59;102238.03;4920793;28;45515;-75
2021/08/31 06:27:40;;;;;;;;;18.75;16.75;;;;;17.90;68.92;102243.31;4922239;28;45754;-75
2021/08/31 06:30:06;;;;;;;;;26.25;21.00;;;;;17.93;68.95;102244.97;4905373;28;47082;-75
2021/08/31 06:32:31;;;;;;;;;28.00;25.25;;;;;17.97;68.88;102250.13;4910168;28;45466;-75
2021/08/31 06:34:57;;;;;;;;;24.00;21.25;;;;;17.97;68.38;102244.81;4921983;28;45153;-75
2021/08/31 06:37:22;;;;;;;;;22.75;20.50;;;;;17.99;68.61;102236.75;4920860;28;45477;-75
2021/08/31 06:39:47;;;;;;;;;27.75;22.25;;;;;18.03;68.58;102234.81;4922406;28;45622;-76
2021/08/31 06:42:13;;;;;;;;;19.00;18.25;;;;;18.02;69.01;102238.44;4904531;28;45609;-75
2021/08/31 06:44:38;;;;;;;;;24.00;22.50;;;;;18.07;68.45;102244.44;4901874;28;45249;-75
2021/08/31 06:47:05;;;;;;;;;26.75;22.75;;;;;18.10;68.43;102245.16;4921055;28;45540;-76
2021/08/31 06:49:32;;;;;;;;;26.50;23.50;;;;;18.15;68.35;102239.63;4925818;28;45355;-76
2021/08/31 06:51:57;;;;;;;;;23.25;20.50;;;;;18.17;68.65;102243.13;4921896;28;45774;-76
2021/08/31 06:54:22;;;;;;;;;24.00;19.25;;;;;18.19;68.34;102241.28;4902117;28;45470;-75
2021/08/31 06:56:48;;;;;;;;;25.75;23.50;;;;;18.24;68.31;102241.09;4913342;28;45593;-75
2021/08/31 06:59:13;;;;;;;;;24.00;21.00;;;;;18.25;68.17;102244.63;4910313;28;47322;-75
2021/08/31 07:01:39;;;;;;;;;25.75;21.00;;;;;18.22;68.21;102251.78;4904456;28;45598;-75
2021/08/31 07:04:04;;;;;;;;;28.00;24.00;;;;;18.24;68.00;102242.88;4920073;28;45319;-75
2021/08/31 07:06:29;;;;;;;;;22.75;13.50;;;;;18.24;68.52;102253.53;4911648;28;45817;-75
2021/08/31 07:08:55;;;;;;;;;31.25;23.00;;;;;18.27;68.16;102245.44;4901929;28;46350;-74
2021/08/31 07:11:20;;;;;;;;;28.50;22.00;;;;;18.29;68.60;102252.41;4919765;28;45423;-75
2021/08/31 07:13:46;;;;;;;;;26.50;24.50;;;;;18.32;68.43;102254.09;4902772;28;45386;-74
2021/08/31 07:16:11;;;;;;;;;32.00;25.00;;;;;18.32;68.33;102246.09;4921378;28;45509;-74
2021/08/31 07:18:37;;;;;;;;;21.50;20.50;;;;;18.40;68.48;102243.97;4920419;28;45311;-74
2021/08/31 07:21:02;;;;;;;;;22.50;18.25;;;;;18.40;67.73;102254.63;4920311;28;45399;-74
2021/08/31 07:23:28;;;;;;;;;27.00;26.00;;;;;18.46;68.02;102252.63;4921528;28;45405;-74
2021/08/31 07:25:53;;;;;;;;;28.75;24.75;;;;;18.48;67.82;102245.44;4904119;28;45970;-74
2021/08/31 07:28:18;;;;;;;;;29.00;26.00;;;;;18.51;67.96;102246.19;4919301;28;45506;-74
2021/08/31 07:30:44;;;;;;;;;29.25;26.00;;;;;18.53;67.16;102243.44;4905717;28;45283;-74
2021/08/31 07:33:10;;;;;;;;;23.25;20.50;;;;;18.50;67.78;102254.22;4921116;28;45344;-74
2021/08/31 07:35:37;;;;;;;;;27.25;26.50;;;;;18.50;67.59;102251.56;4920021;28;45576;-74
2021/08/31 07:38:04;;;;;;;;;31.25;27.00;;;;;18.52;67.65;102252.38;4921701;28;45355;-73
2021/08/31 07:40:29;;;;;;;;;26.00;24.00;;;;;18.53;67.50;102251.44;4903799;28;45658;-74
2021/08/31 07:42:55;;;;;;;;;32.75;25.00;;;;;18.54;68.07;102251.34;4918722;28;45302;-73
2021/08/31 07:45:21;;;;;;;;;28.00;26.50;;;;;18.58;67.91;102253.88;4921209;28;45389;-73
2021/08/31 07:47:47;;;;;;;;;27.75;22.50;;;;;18.59;67.52;102253.84;4920265;28;46472;-73
2021/08/31 07:50:13;;;;;;;;;28.00;27.25;;;;;18.68;67.29;102257.91;4921404;28;45766;-73
2021/08/31 07:52:39;;;;;;;;;24.00;19.75;;;;;18.72;67.31;102262.16;4920866;28;45268;-73
2021/08/31 07:55:06;;;;;;;;;27.50;23.75;;;;;18.78;67.22;102259.22;4920588;28;45525;-75
2021/08/31 07:57:32;;;;;;;;;26.00;24.00;;;;;18.82;66.83;102259.94;4919536;28;45469;-75
2021/08/31 07:59:57;;;;;;;;;29.50;25.00;;;;;18.84;66.86;102251.91;4920508;28;45686;-72
2021/08/31 08:02:23;;;;;;;;;23.00;21.00;;;;;18.83;66.96;102263.47;4921016;28;45350;-72
2021/08/31 08:04:48;;;;;;;;;27.75;25.25;;;;;18.90;66.83;102272.94;4919890;28;45674;-72
2021/08/31 08:07:13;;;;;;;;;28.75;21.50;;;;;18.98;66.81;102261.94;4909403;28;45304;-72
2021/08/31 08:09:39;;;;;;;;;17.25;15.00;;;;;19.09;66.17;102266.78;4903561;28;45904;-72
2021/08/31 08:12:04;;;;;;;;;27.00;22.50;;;;;19.17;66.58;102274.44;4920388;28;45295;-72
2021/08/31 08:14:30;;;;;;;;;26.25;24.00;;;;;19.25;66.35;102274.97;4903577;28;46073;-73
2021/08/31 08:16:56;;;;;;;;;29.50;27.00;;;;;19.28;65.88;102277.53;4902850;28;47272;-72
2021/08/31 08:19:21;;;;;;;;;23.75;22.50;;;;;19.30;65.86;102277.44;4918755;28;45367;-72
2021/08/31 08:21:46;;;;;;;;;24.25;22.00;;;;;19.32;65.50;102271.09;4920977;28;45221;-72
2021/08/31 08:24:12;;;;;;;;;13.25;12.00;;;;;19.38;65.27;102285.09;4902507;28;45723;-72
2021/08/31 08:26:37;;;;;;;;;19.00;17.50;;;;;19.36;65.02;102294.97;4919848;28;46492;-72
2021/08/31 08:29:04;;;;;;;;;21.75;20.50;;;;;19.32;65.30;102286.22;4903488;28;45253;-74
2021/08/31 08:31:32;;;;;;;;;23.75;23.75;;;;;19.30;65.20;102280.09;4906575;28;45346;-74
2021/08/31 08:33:58;;;;;;;;;25.75;21.50;;;;;19.32;65.17;102287.09;4905824;28;46138;-74
2021/08/31 08:36:24;;;;;;;;;27.25;23.50;;;;;19.37;64.71;102286.00;4923115;28;45413;-74
2021/08/31 08:38:49;;;;;;;;;21.75;20.50;;;;;19.38;65.01;102279.75;4923467;28;45760;-74
2021/08/31 08:41:14;;;;;;;;;22.50;20.50;;;;;19.42;64.71;102279.53;4923786;28;45437;-74
2021/08/31 08:43:40;;;;;;;;;29.75;22.50;;;;;19.48;64.96;102286.41;4922847;28;45288;-74
2021/08/31 08:46:06;;;;;;;;;23.75;19.25;;;;;19.56;64.87;102289.56;4923249;28;45519;-74
2021/08/31 08:48:33;;;;;;;;;31.00;22.50;;;;;19.63;63.79;102291.94;4922189;28;45497;-74
2021/08/31 08:51:04;;;;;;;;;19.75;16.00;;;;;19.67;63.86;102293.53;4933070;28;45385;-74
2021/08/31 08:53:31;;;;;;;;;25.00;18.50;;;;;19.67;63.14;102298.84;4925267;28;45352;-74
2021/08/31 08:55:58;;;;;;;;;22.00;19.50;;;;;19.73;63.25;102301.22;4924831;28;45666;-74
2021/08/31 08:58:24;;;;;;;;;19.00;18.50;;;;;19.77;63.34;102300.16;4928451;28;45419;-74
2021/08/31 09:01:05;;;;;;;;;18.75;18.75;;;;;19.88;63.30;102304.97;4924017;28;45241;-74
2021/08/31 09:03:33;;;;;;;;;25.50;22.75;;;;;19.96;62.62;102293.94;4911671;28;45603;-74
2021/08/31 09:06:31;;;;;;;;;22.50;17.25;;;;;20.04;62.29;102295.34;4923870;28;45430;-74
2021/08/31 09:08:59;;;;;;;;;20.00;19.50;;;;;20.08;62.11;102308.47;4901468;28;45385;-74
2021/08/31 09:11:31;;;;;;;;;18.50;15.25;;;;;20.12;62.33;102298.56;4921969;28;45521;-74
2021/08/31 09:14:17;;;;;;;;;20.25;18.75;;;;;20.22;61.53;102305.16;4902357;28;46427;-74
2021/08/31 09:16:45;;;;;;;;;19.75;18.50;;;;;20.24;61.46;102299.75;4923175;28;45355;-74
2021/08/31 09:19:12;;;;;;;;;20.25;18.25;;;;;20.29;61.12;102307.53;4922466;28;45462;-74
2021/08/31 09:21:38;;;;;;;;;22.25;19.00;;;;;20.35;61.18;102301.88;4922943;28;45444;-74
2021/08/31 09:24:04;;;;;;;;;19.25;15.50;;;;;20.40;61.04;102301.63;4923020;28;45217;-74
2021/08/31 09:26:40;;;;;;;;;24.00;16.50;;;;;20.44;60.71;102306.78;4921916;28;45831;-74
2021/08/31 09:29:16;;;;;;;;;26.50;20.50;;;;;20.51;60.75;102301.97;4923406;28;45235;-74
2021/08/31 09:31:48;;;;;;;;;19.25;17.25;;;;;20.57;60.56;102303.44;4905293;28;45438;-74
2021/08/31 09:34:34;;;;;;;;;21.25;19.00;;;;;20.62;60.33;102300.56;4920973;28;45252;-74
2021/08/31 09:37:31;;;;;;;;;21.75;17.25;;;;;20.67;60.19;102304.72;4922344;28;45289;-74
2021/08/31 09:40:12;;;;;;;;;19.50;16.75;;;;;20.67;59.81;102299.38;4910646;28;45541;-74
2021/08/31 09:42:58;;;;;;;;;22.25;16.25;;;;;20.71;59.82;102294.75;4921865;28;45267;-74
2021/08/31 09:45:35;;;;;;;;;24.25;19.25;;;;;20.73;59.12;102294.66;4924648;28;45232;-74
2021/08/31 09:48:03;;;;;;;;;24.00;18.25;;;;;20.72;59.41;102292.94;4903940;28;48397;-74
2021/08/31 09:50:58;;;;;;;;;18.25;18.00;;;;;20.72;59.28;102295.63;4905663;28;45536;-74
2021/08/31 09:53:29;;;;;;;;;28.75;20.75;;;;;20.68;59.01;102303.78;4905787;28;45505;-74
2021/08/31 09:56:00;;;;;;;;;17.25;17.00;;;;;20.67;59.85;102306.53;4921869;28;45438;-74
2021/08/31 09:58:29;;;;;;;;;22.00;19.50;;;;;20.65;59.56;102295.06;4921864;28;46512;-74
2021/08/31 10:00:55;;;;;;;;;23.00;19.25;;;;;20.66;59.25;102303.00;4922073;28;45248;-74
2021/08/31 10:03:23;;;;;;;;;28.00;25.50;;;;;20.70;59.25;102298.34;4923500;28;45217;-74
2021/08/31 10:05:51;;;;;;;;;25.50;22.00;;;;;20.73;59.08;102303.53;4904269;28;46293;-74
2021/08/31 10:08:17;;;;;;;;;19.25;18.25;;;;;20.79;59.27;102297.03;4922253;28;46647;-74
2021/08/31 10:10:44;;;;;;;;;30.50;26.00;;;;;20.88;59.22;102299.22;4922899;28;45276;-73
2021/08/31 10:13:18;;;;;;;;;26.00;23.00;;;;;20.92;59.23;102306.13;4921748;28;45251;-74
2021/08/31 10:15:47;;;;;;;;;26.00;21.25;;;;;20.93;58.69;102309.66;4922127;28;45595;-74
2021/08/31 10:18:15;;;;;;;;;29.00;27.25;;;;;20.91;58.36;102309.72;4922393;28;45407;-74
2021/08/31 10:20:46;;;;;;;;;24.00;22.25;;;;;20.90;58.70;102310.69;4920367;28;45562;-74
2021/08/31 10:23:15;;;;;;;;;29.50;23.75;;;;;20.89;58.62;102303.59;4921998;28;45357;-74
2021/08/31 10:25:41;;;;;;;;;24.25;21.50;;;;;20.88;58.89;102306.38;4922019;28;45465;-74
2021/08/31 10:28:28;;;;;;;;;37.00;29.50;;;;;20.88;58.73;102309.91;4921373;28;45296;-74
2021/08/31 10:30:55;;;;;;;;;28.00;25.25;;;;;20.87;58.75;102307.28;4922298;28;45291;-74
2021/08/31 10:33:35;;;;;;;;;32.25;28.25;;;;;20.85;58.62;102312.72;4920070;28;45415;-74
2021/08/31 10:36:05;;;;;;;;;31.00;27.75;;;;;20.81;58.58;102316.50;4903162;28;46467;-74
2021/08/31 10:38:51;;;;;;;;;32.75;28.75;;;;;20.80;58.81;102304.09;4896200;29;47377;-74
2021/08/31 10:41:42;;;;;;;;;28.75;26.50;;;;;20.90;59.00;102315.16;4920070;28;45425;-74
2021/08/31 10:44:10;;;;;;;;;31.50;30.00;;;;;20.99;59.15;102308.47;4924540;28;45532;-73
2021/08/31 10:46:57;;;;;;;;;27.25;25.75;;;;;21.05;58.33;102308.19;4917636;28;45148;-74
2021/08/31 10:49:22;;;;;;;;;38.00;31.50;;;;;21.06;58.19;102312.59;4920944;28;45580;-74
2021/08/31 10:52:05;;;;;;;;;40.75;34.25;;;;;21.08;57.87;102313.38;4930924;28;45370;-73
2021/08/31 10:54:50;;;;;;;;;38.75;35.25;;;;;21.06;58.35;102320.63;4920846;28;45212;-74
2021/08/31 10:57:43;;;;;;;;;35.75;32.75;;;;;21.01;58.06;102311.97;4921831;28;45448;-74
2021/08/31 11:00:14;;;;;;;;;30.75;29.00;;;;;20.98;58.08;102315.63;4903249;28;47396;-74
2021/08/31 11:02:48;;;;;;;;;28.50;23.25;;;;;20.91;57.85;102315.06;4921458;28;45497;-74
2021/08/31 11:05:26;;;;;;;;;33.25;27.50;;;;;20.88;57.65;102320.59;4921639;28;45461;-73
2021/08/31 11:07:57;;;;;;;;;30.50;29.75;;;;;20.86;57.90;102319.81;4922023;28;45454;-74
2021/08/31 11:10:34;;;;;;;;;42.00;32.75;;;;;20.86;57.60;102309.13;4921652;28;46571;-74